Time;durP1;ratioP1;P1;durP2;ratioP2;P2;SDS_P1;SDS_P2;PMS_P1;PMS_P2;Temp;Humidity;BMP_temperature;BMP_pressure;BME280_temperature;BME280_humidity;BME280_pressure;Samples;Min_cycle;Max_cycle;Signal;HPM_P1;HPM_P2
2021/12/01 00:00:34;;;;;;;17.42;7.07;;;8.50;99.90;;;;;;4993120;28;20089;-71
2021/12/01 00:03:00;;;;;;;24.25;9.23;;;9.00;99.90;;;;;;4987568;28;20053;-74
2021/12/01 00:05:28;;;;;;;23.27;9.50;;;9.60;99.90;;;;;;4964529;28;20490;-75
2021/12/01 00:07:55;;;;;;;23.73;8.82;;;8.70;99.90;;;;;;4963898;28;20046;-73
2021/12/01 00:10:24;;;;;;;18.90;8.27;;;9.00;99.90;;;;;;4953195;28;20493;-74
2021/12/01 00:12:51;;;;;;;17.75;7.38;;;8.40;99.90;;;;;;4949514;28;20474;-74
2021/12/01 00:15:17;;;;;;;22.83;9.05;;;8.50;99.90;;;;;;4970678;28;20046;-74
2021/12/01 00:17:43;;;;;;;14.43;7.10;;;8.40;99.90;;;;;;4961831;28;20062;-74
2021/12/01 00:20:11;;;;;;;22.13;9.15;;;8.40;99.90;;;;;;4945974;28;20043;-74
2021/12/01 00:22:38;;;;;;;24.20;9.52;;;9.60;99.90;;;;;;4966231;28;20095;-73
2021/12/01 00:25:07;;;;;;;23.63;9.07;;;9.00;99.90;;;;;;4966323;28;20055;-73
2021/12/01 00:27:33;;;;;;;27.63;10.95;;;9.60;99.90;;;;;;4915496;29;20042;-72
2021/12/01 00:29:59;;;;;;;21.38;9.82;;;8.70;99.90;;;;;;4930877;28;20506;-72
2021/12/01 00:32:25;;;;;;;29.25;11.65;;;8.60;99.90;;;;;;4970217;28;20101;-72
2021/12/01 00:34:52;;;;;;;29.38;11.93;;;9.80;99.90;;;;;;4975269;28;20450;-73
2021/12/01 00:37:18;;;;;;;36.58;14.35;;;9.90;99.90;;;;;;4950442;28;20054;-73
2021/12/01 00:39:44;;;;;;;32.40;14.02;;;9.00;99.90;;;;;;4949797;28;20043;-72
2021/12/01 00:42:11;;;;;;;43.45;17.00;;;8.90;99.90;;;;;;4948599;28;20058;-74
2021/12/01 00:44:44;;;;;;;42.78;17.80;;;9.10;99.90;;;;;;4948991;28;20062;-74
2021/12/01 00:47:12;;;;;;;41.45;18.38;;;10.20;99.90;;;;;;4947543;28;20039;-72
2021/12/01 00:49:39;;;;;;;44.67;19.85;;;9.20;99.90;;;;;;4949059;28;20415;-72
2021/12/01 00:52:05;;;;;;;43.53;18.83;;;10.40;99.90;;;;;;4948500;28;20119;-73
2021/12/01 00:54:31;;;;;;;51.58;21.63;;;9.70;99.90;;;;;;4949196;28;20067;-74
2021/12/01 00:56:57;;;;;;;51.05;21.23;;;9.30;99.90;;;;;;4929286;29;20047;-73
2021/12/01 00:59:23;;;;;;;47.75;20.95;;;10.30;99.90;;;;;;4943356;28;20039;-73
2021/12/01 01:01:50;;;;;;;52.50;22.10;;;10.60;99.90;;;;;;4948231;28;20046;-75
2021/12/01 01:04:16;;;;;;;54.58;21.80;;;9.80;99.90;;;;;;4948857;28;20861;-74
2021/12/01 01:06:43;;;;;;;45.88;21.52;;;9.30;99.90;;;;;;4948357;28;20054;-71
2021/12/01 01:09:10;;;;;;;44.05;21.10;;;9.10;99.90;;;;;;4932168;29;20039;-71
2021/12/01 01:17:12;;;;;;;49.58;22.67;;;10.30;99.90;;;;;;4948141;28;20047;-72
2021/12/01 01:19:39;;;;;;;46.08;20.67;;;10.50;99.90;;;;;;4948558;28;20376;-71
2021/12/01 01:22:07;;;;;;;44.30;21.92;;;9.20;99.90;;;;;;4932363;28;20400;-71
2021/12/01 01:24:34;;;;;;;39.00;20.65;;;10.40;99.90;;;;;;4948935;28;20105;-71
2021/12/01 01:27:00;;;;;;;43.95;21.95;;;10.50;99.90;;;;;;4950519;28;20440;-73
2021/12/01 01:29:26;;;;;;;45.47;20.48;;;9.20;99.90;;;;;;4967942;28;20552;-71
2021/12/01 01:31:55;;;;;;;41.90;20.42;;;9.70;99.90;;;;;;4951334;28;20050;-72
2021/12/01 01:34:22;;;;;;;38.15;19.70;;;9.20;99.90;;;;;;4951242;29;20526;-74
2021/12/01 01:36:49;;;;;;;47.17;20.65;;;9.40;99.90;;;;;;4952149;28;20043;-73
2021/12/01 01:39:15;;;;;;;35.72;18.65;;;9.80;99.90;;;;;;4951364;28;20081;-71
2021/12/01 01:41:41;;;;;;;37.53;18.63;;;9.30;99.90;;;;;;4951446;28;20047;-74
2021/12/01 01:44:07;;;;;;;33.75;17.30;;;10.50;99.90;;;;;;4951274;28;20054;-73
2021/12/01 01:46:35;;;;;;;33.83;18.25;;;10.80;99.90;;;;;;4951642;29;20544;-72
2021/12/01 01:49:09;;;;;;;24.85;16.67;;;10.10;99.90;;;;;;4950292;28;20047;-73
2021/12/01 01:51:35;;;;;;;29.15;14.82;;;10.30;99.90;;;;;;4935740;29;20039;-71
2021/12/01 01:54:01;;;;;;;31.95;16.90;;;9.80;99.90;;;;;;4935347;29;20050;-72
2021/12/01 01:56:28;;;;;;;26.35;15.27;;;9.70;99.90;;;;;;4932850;28;20419;-72
2021/12/01 01:58:54;;;;;;;23.85;11.85;;;9.60;99.90;;;;;;4930431;28;20586;-72
2021/12/01 02:04:06;;;;;;;21.75;11.35;;;9.80;99.90;;;;;;4939713;29;20039;-72
2021/12/01 02:06:32;;;;;;;26.25;11.73;;;10.60;99.90;;;;;;4951441;28;20066;-72
2021/12/01 02:08:58;;;;;;;22.48;11.45;;;9.60;99.90;;;;;;4950418;28;20047;-72
2021/12/01 02:11:25;;;;;;;18.13;10.18;;;10.40;99.90;;;;;;4927979;28;20051;-72
2021/12/01 02:13:51;;;;;;;15.65;8.45;;;9.70;99.90;;;;;;4936989;28;20513;-73
2021/12/01 02:16:18;;;;;;;16.15;8.15;;;9.90;99.90;;;;;;4950193;29;20043;-73
2021/12/01 02:18:44;;;;;;;17.88;7.15;;;10.20;99.90;;;;;;4951371;28;20039;-73
2021/12/01 02:21:12;;;;;;;15.13;6.68;;;10.30;99.90;;;;;;4946737;28;20065;-72
2021/12/01 02:23:43;;;;;;;11.60;6.15;;;10.60;99.90;;;;;;4971621;28;20067;-73
2021/12/01 02:26:09;;;;;;;12.38;4.68;;;9.90;99.90;;;;;;4991788;28;20482;-73
2021/12/01 02:28:36;;;;;;;11.25;4.47;;;9.80;99.90;;;;;;5032772;28;20051;-74
2021/12/01 02:31:02;;;;;;;12.00;3.70;;;10.60;99.90;;;;;;4960081;28;20053;-74
2021/12/01 02:33:28;;;;;;;5.88;3.10;;;9.90;99.90;;;;;;4954004;28;20027;-72
2021/12/01 02:35:54;;;;;;;5.78;3.00;;;10.00;99.90;;;;;;4979056;28;20491;-73
2021/12/01 02:38:21;;;;;;;7.07;2.40;;;10.00;99.90;;;;;;4959162;28;20530;-72
2021/12/01 02:40:47;;;;;;;4.32;2.50;;;10.50;99.90;;;;;;4980273;28;20226;-72
2021/12/01 02:43:13;;;;;;;4.97;2.25;;;9.50;99.90;;;;;;4951341;28;20051;-74
2021/12/01 02:45:40;;;;;;;5.32;2.53;;;10.50;99.90;;;;;;4965179;28;20043;-73
2021/12/01 02:48:07;;;;;;;6.20;2.00;;;10.30;99.90;;;;;;4955491;28;20050;-73
2021/12/01 02:50:33;;;;;;;5.60;1.90;;;10.80;99.90;;;;;;4992225;28;20104;-73
2021/12/01 02:52:59;;;;;;;4.75;1.67;;;10.90;99.90;;;;;;4953129;28;20049;-73
2021/12/01 02:55:28;;;;;;;3.35;1.95;;;11.00;99.90;;;;;;4954696;28;20411;-73
2021/12/01 02:57:54;;;;;;;4.15;2.25;;;10.20;99.90;;;;;;4957151;28;20078;-73
2021/12/01 03:00:23;;;;;;;2.72;1.50;;;11.00;99.90;;;;;;5031341;28;20081;-73
2021/12/01 03:02:51;;;;;;;3.45;1.50;;;11.00;99.90;;;;;;4948743;28;20043;-73
2021/12/01 03:05:17;;;;;;;2.30;1.25;;;10.90;99.90;;;;;;4981687;28;20082;-73
2021/12/01 03:07:44;;;;;;;3.90;1.30;;;10.60;99.90;;;;;;4962166;28;20046;-73
2021/12/01 03:10:10;;;;;;;4.32;1.60;;;10.90;99.90;;;;;;4987240;28;20409;-73
2021/12/01 03:12:39;;;;;;;2.03;1.17;;;9.70;99.90;;;;;;4959382;28;20039;-72
2021/12/01 03:15:07;;;;;;;3.92;1.35;;;10.50;99.90;;;;;;4966572;28;20120;-72
2021/12/01 03:17:33;;;;;;;6.80;1.63;;;10.10;99.90;;;;;;4970211;28;20437;-71
2021/12/01 03:19:59;;;;;;;4.78;1.60;;;10.30;99.90;;;;;;4967944;28;20039;-73
2021/12/01 03:22:26;;;;;;;5.22;1.70;;;9.90;99.90;;;;;;4957051;28;20054;-73
2021/12/01 03:24:52;;;;;;;2.45;1.25;;;10.40;99.90;;;;;;4950306;28;20059;-72
2021/12/01 03:27:19;;;;;;;6.25;1.35;;;10.60;99.90;;;;;;4935528;28;20039;-72
2021/12/01 03:29:49;;;;;;;4.10;1.10;;;10.90;99.90;;;;;;4917051;29;20557;-71
2021/12/01 03:32:15;;;;;;;2.88;1.00;;;9.80;99.90;;;;;;4949029;28;20506;-71
2021/12/01 03:34:42;;;;;;;1.67;1.00;;;10.80;99.90;;;;;;4939202;28;20040;-72
2021/12/01 03:37:09;;;;;;;5.25;1.23;;;10.00;99.90;;;;;;4941361;28;20094;-71
2021/12/01 03:39:35;;;;;;;3.70;1.30;;;10.40;99.90;;;;;;4946482;28;20105;-73
2021/12/01 03:42:01;;;;;;;10.95;2.13;;;10.60;99.90;;;;;;4930035;29;20058;-73
2021/12/01 03:44:27;;;;;;;5.70;1.88;;;9.90;99.90;;;;;;4939587;28;20047;-73
2021/12/01 03:46:53;;;;;;;4.78;1.52;;;10.70;99.90;;;;;;4935574;29;20043;-72
2021/12/01 03:49:20;;;;;;;7.70;1.70;;;10.40;99.90;;;;;;4943173;28;20058;-73
2021/12/01 03:51:46;;;;;;;4.45;1.30;;;10.00;99.90;;;;;;4938169;28;20055;-71
2021/12/01 03:54:12;;;;;;;7.80;1.45;;;10.10;99.90;;;;;;4936787;28;20098;-71
2021/12/01 03:56:38;;;;;;;3.05;1.40;;;10.00;99.90;;;;;;4943558;28;20452;-72
2021/12/01 03:59:04;;;;;;;6.43;1.52;;;10.40;99.90;;;;;;4948158;28;20043;-73
2021/12/01 04:01:31;;;;;;;7.75;1.80;;;10.30;99.90;;;;;;4946785;28;20043;-72
2021/12/01 04:03:58;;;;;;;8.60;1.90;;;10.20;99.90;;;;;;4948072;28;20051;-73
2021/12/01 04:06:27;;;;;;;12.18;2.33;;;10.70;99.90;;;;;;4926323;28;20074;-73
2021/12/01 04:08:56;;;;;;;8.32;2.13;;;10.20;99.90;;;;;;5032505;28;20075;-73
2021/12/01 04:11:21;;;;;;;12.52;2.30;;;10.10;99.90;;;;;;4935875;28;20093;-72
2021/12/01 04:13:48;;;;;;;14.07;2.90;;;9.90;99.90;;;;;;5014171;28;20051;-73
2021/12/01 04:16:14;;;;;;;8.55;1.80;;;10.60;99.90;;;;;;4932959;28;20035;-72
2021/12/01 04:18:40;;;;;;;15.45;3.95;;;9.60;99.90;;;;;;4939938;28;20047;-72
2021/12/01 04:21:06;;;;;;;12.55;2.58;;;10.50;99.90;;;;;;4931254;28;20047;-72
2021/12/01 04:23:34;;;;;;;8.32;2.13;;;9.70;99.90;;;;;;4960565;28;20059;-72
2021/12/01 04:26:04;;;;;;;11.55;2.30;;;9.70;99.90;;;;;;4986311;28;20144;-73
2021/12/01 04:28:29;;;;;;;11.68;2.22;;;10.70;99.90;;;;;;4988894;28;20043;-72
2021/12/01 04:30:55;;;;;;;8.85;1.92;;;9.80;99.90;;;;;;4971370;28;20104;-73
2021/12/01 04:33:21;;;;;;;6.43;1.67;;;9.90;99.90;;;;;;4971549;28;20074;-73
2021/12/01 04:35:48;;;;;;;9.73;2.78;;;9.90;99.90;;;;;;4971541;28;20072;-72
2021/12/01 04:38:14;;;;;;;6.65;2.00;;;10.70;99.90;;;;;;5056432;28;20420;-73
2021/12/01 04:40:40;;;;;;;5.85;1.80;;;10.90;99.90;;;;;;4998485;28;20072;-72
2021/12/01 04:43:06;;;;;;;6.18;1.92;;;9.80;99.90;;;;;;4968947;28;20051;-74
2021/12/01 04:45:36;;;;;;;6.13;1.52;;;10.60;99.90;;;;;;4970966;28;20121;-73
2021/12/01 04:48:01;;;;;;;6.43;1.88;;;9.90;99.90;;;;;;4971550;28;20509;-73
2021/12/01 04:50:28;;;;;;;5.22;1.95;;;10.20;99.90;;;;;;4957674;28;20050;-73
2021/12/01 04:52:57;;;;;;;4.97;2.00;;;10.70;99.90;;;;;;5055859;28;20050;-72
2021/12/01 04:55:24;;;;;;;5.60;1.65;;;9.70;99.90;;;;;;4955542;28;20494;-72
2021/12/01 04:57:50;;;;;;;3.53;2.08;;;9.90;99.90;;;;;;4971052;28;20111;-73
2021/12/01 05:00:22;;;;;;;6.60;2.28;;;10.60;99.90;;;;;;4970935;28;20072;-72
2021/12/01 05:02:48;;;;;;;2.53;2.00;;;9.90;99.90;;;;;;4996570;28;20414;-72
2021/12/01 05:05:14;;;;;;;3.38;2.25;;;10.90;99.90;;;;;;4965301;28;20080;-72
2021/12/01 05:07:40;;;;;;;4.03;2.83;;;10.20;99.90;;;;;;4972976;28;20045;-71
2021/12/01 05:10:06;;;;;;;6.82;3.38;;;10.90;99.90;;;;;;4964312;28;20034;-72
2021/12/01 05:12:34;;;;;;;3.97;2.72;;;9.70;99.90;;;;;;5003603;28;20046;-74
2021/12/01 05:15:00;;;;;;;3.55;2.47;;;10.40;99.90;;;;;;4989169;28;20047;-72
2021/12/01 05:17:25;;;;;;;2.95;2.30;;;10.60;99.90;;;;;;4955226;28;20046;-73
2021/12/01 05:19:51;;;;;;;3.45;2.70;;;10.40;99.90;;;;;;4999482;28;20042;-74
2021/12/01 05:22:17;;;;;;;2.75;2.00;;;10.60;99.90;;;;;;4989942;28;20042;-74
2021/12/01 05:24:43;;;;;;;2.17;1.88;;;9.60;99.90;;;;;;4975958;28;20121;-74
2021/12/01 05:27:09;;;;;;;2.25;1.77;;;10.80;99.90;;;;;;4972060;28;20569;-74
2021/12/01 05:29:35;;;;;;;2.28;1.38;;;10.00;99.90;;;;;;4972939;28;20129;-72
2021/12/01 05:32:01;;;;;;;2.00;1.42;;;10.00;99.90;;;;;;4971038;28;20125;-72
2021/12/01 05:34:27;;;;;;;2.67;1.45;;;10.00;99.90;;;;;;4958915;28;20070;-72
2021/12/01 05:36:59;;;;;;;1.77;1.38;;;10.70;99.90;;;;;;4991224;28;20035;-71
2021/12/01 05:39:25;;;;;;;2.08;1.30;;;9.50;99.90;;;;;;4988085;28;20054;-73
2021/12/01 05:41:52;;;;;;;1.75;1.55;;;10.10;99.90;;;;;;4984143;28;20103;-73
2021/12/01 05:44:18;;;;;;;3.08;1.73;;;10.50;99.90;;;;;;5010665;28;20104;-71
2021/12/01 05:46:43;;;;;;;2.42;1.42;;;9.80;99.90;;;;;;4978411;28;20039;-74
2021/12/01 05:49:09;;;;;;;1.95;1.50;;;9.50;99.90;;;;;;5001512;28;20039;-73
2021/12/01 05:51:35;;;;;;;2.13;1.52;;;10.60;99.90;;;;;;4991496;28;20034;-72
2021/12/01 05:54:01;;;;;;;2.10;1.70;;;10.00;99.90;;;;;;4954835;28;20073;-74
2021/12/01 05:56:27;;;;;;;2.10;1.60;;;9.40;99.90;;;;;;4971024;28;20070;-71
2021/12/01 05:58:53;;;;;;;2.28;1.80;;;9.90;99.90;;;;;;4975455;28;20050;-72
2021/12/01 06:01:19;;;;;;;3.53;1.90;;;9.50;99.90;;;;;;5002048;28;20144;-72
2021/12/01 06:03:45;;;;;;;2.72;1.92;;;9.50;99.90;;;;;;4957955;28;20046;-74
2021/12/01 06:06:11;;;;;;;3.33;2.28;;;9.90;99.90;;;;;;4972824;28;20457;-73
2021/12/01 06:08:37;;;;;;;2.60;2.08;;;10.20;99.90;;;;;;4975755;28;20058;-71
2021/12/01 06:11:03;;;;;;;2.38;1.95;;;10.30;99.90;;;;;;4973390;28;20042;-73
2021/12/01 06:13:29;;;;;;;3.65;1.90;;;9.60;99.90;;;;;;5039848;28;20043;-74
2021/12/01 06:15:55;;;;;;;2.60;1.60;;;10.00;99.90;;;;;;4975125;28;20070;-74
2021/12/01 06:18:21;;;;;;;2.13;1.90;;;9.20;99.90;;;;;;4990239;28;20087;-73
2021/12/01 06:20:47;;;;;;;2.67;2.20;;;9.20;99.90;;;;;;5058982;28;20065;-73
2021/12/01 06:23:13;;;;;;;2.60;2.10;;;9.20;99.90;;;;;;4990851;28;20114;-73
2021/12/01 06:25:39;;;;;;;2.75;2.10;;;10.30;99.90;;;;;;5006406;28;20059;-73
2021/12/01 06:28:05;;;;;;;2.55;2.15;;;10.00;99.90;;;;;;4956761;28;20046;-72
2021/12/01 06:30:36;;;;;;;3.63;2.15;;;10.30;99.90;;;;;;4990710;28;20470;-74
2021/12/01 06:33:02;;;;;;;2.72;2.30;;;9.60;99.90;;;;;;4972847;28;20039;-73
2021/12/01 06:35:28;;;;;;;2.38;1.90;;;9.20;99.90;;;;;;4961281;28;20097;-72
2021/12/01 06:37:55;;;;;;;2.97;2.22;;;9.90;99.90;;;;;;4973246;28;20038;-71
2021/12/01 06:40:21;;;;;;;2.88;2.40;;;9.90;99.90;;;;;;4988419;28;20046;-71
2021/12/01 06:42:47;;;;;;;2.50;2.00;;;9.90;99.90;;;;;;4989986;28;20219;-71
2021/12/01 06:45:13;;;;;;;2.10;1.90;;;9.10;99.90;;;;;;4973810;28;20106;-72
2021/12/01 06:47:40;;;;;;;2.58;2.20;;;9.60;99.90;;;;;;4957458;28;20053;-72
2021/12/01 06:50:08;;;;;;;2.60;2.13;;;9.00;99.90;;;;;;4978717;28;20068;-72
2021/12/01 06:52:33;;;;;;;2.30;2.00;;;10.10;99.90;;;;;;4973191;28;20538;-72
2021/12/01 06:55:00;;;;;;;2.60;2.25;;;9.00;99.90;;;;;;4973399;28;20161;-71
2021/12/01 06:57:26;;;;;;;5.43;2.78;;;9.90;99.90;;;;;;5025764;28;20394;-71
2021/12/01 06:59:52;;;;;;;3.88;2.40;;;9.30;99.90;;;;;;5059048;28;20046;-72
2021/12/01 07:02:18;;;;;;;2.40;2.05;;;10.10;99.90;;;;;;4981226;28;20054;-72
2021/12/01 07:04:44;;;;;;;2.10;1.90;;;9.90;99.90;;;;;;4985816;28;20486;-72
2021/12/01 07:07:11;;;;;;;2.03;1.83;;;9.70;99.90;;;;;;4990771;28;20454;-72
2021/12/01 07:09:37;;;;;;;2.08;1.77;;;9.90;99.90;;;;;;5001505;28;20050;-71
2021/12/01 07:12:03;;;;;;;2.50;2.30;;;8.90;99.90;;;;;;4987412;28;20509;-72
2021/12/01 07:14:29;;;;;;;1.90;1.65;;;8.90;99.90;;;;;;4970006;28;20418;-72
2021/12/01 07:16:55;;;;;;;2.17;1.85;;;9.00;99.90;;;;;;4986765;28;20073;-73
2021/12/01 07:19:21;;;;;;;1.77;1.48;;;10.00;99.90;;;;;;4986285;28;20039;-72
2021/12/01 07:21:47;;;;;;;1.55;1.40;;;10.00;99.90;;;;;;5002142;28;20608;-72
2021/12/01 07:24:13;;;;;;;1.80;1.50;;;8.90;99.90;;;;;;4957163;28;20065;-71
2021/12/01 07:26:39;;;;;;;4.20;1.60;;;10.00;99.90;;;;;;4990038;28;20057;-72
2021/12/01 07:29:06;;;;;;;2.30;1.70;;;9.20;99.90;;;;;;4990458;28;20039;-72
2021/12/01 07:31:31;;;;;;;2.40;2.10;;;9.00;99.90;;;;;;4972592;28;20046;-72
2021/12/01 07:33:57;;;;;;;2.00;1.70;;;9.20;99.90;;;;;;4973182;28;20084;-73
2021/12/01 07:36:23;;;;;;;2.10;1.70;;;8.90;99.90;;;;;;4956267;28;20042;-71
2021/12/01 07:38:50;;;;;;;2.75;2.10;;;10.10;99.90;;;;;;5003459;28;20057;-72
2021/12/01 07:41:17;;;;;;;2.63;2.15;;;9.40;99.90;;;;;;4975389;28;20057;-72
2021/12/01 07:43:43;;;;;;;2.85;2.40;;;9.10;99.90;;;;;;4956848;28;20054;-73
2021/12/01 07:46:09;;;;;;;2.40;1.80;;;9.90;99.90;;;;;;4990487;28;20042;-72
2021/12/01 07:48:36;;;;;;;2.63;2.05;;;10.40;99.90;;;;;;4962265;28;20047;-71
2021/12/01 07:51:03;;;;;;;3.05;2.75;;;9.40;99.90;;;;;;5004635;28;20123;-72
2021/12/01 07:53:28;;;;;;;3.30;2.35;;;9.90;99.90;;;;;;4972447;28;20087;-73
2021/12/01 07:55:54;;;;;;;4.20;3.00;;;9.10;99.90;;;;;;4957072;28;20038;-72
2021/12/01 07:58:20;;;;;;;4.70;2.58;;;9.50;99.90;;;;;;4971556;28;20054;-72
2021/12/01 08:00:45;;;;;;;6.25;2.72;;;9.80;99.90;;;;;;5004653;28;20049;-73
2021/12/01 08:03:11;;;;;;;4.88;2.75;;;9.50;99.90;;;;;;4972440;28;20051;-73
2021/12/01 08:05:37;;;;;;;4.15;3.10;;;9.00;99.90;;;;;;4972133;28;20141;-74
2021/12/01 08:08:04;;;;;;;5.18;3.25;;;9.80;99.90;;;;;;4972583;28;20046;-73
2021/12/01 08:10:31;;;;;;;5.35;4.13;;;9.10;99.90;;;;;;4999728;28;20049;-72
2021/12/01 08:13:00;;;;;;;3.70;3.28;;;9.70;99.90;;;;;;4972201;28;20069;-72
2021/12/01 08:15:26;;;;;;;4.22;2.95;;;9.20;99.90;;;;;;4956468;28;20050;-71
2021/12/01 08:17:52;;;;;;;3.90;3.22;;;9.10;99.90;;;;;;4985568;28;20046;-71
2021/12/01 08:20:19;;;;;;;4.95;3.25;;;9.80;99.90;;;;;;4989455;28;20355;-71
2021/12/01 08:22:45;;;;;;;4.80;2.97;;;9.00;99.90;;;;;;4987722;28;20088;-71
2021/12/01 08:25:12;;;;;;;5.13;3.10;;;9.50;99.90;;;;;;4988791;28;20367;-71
2021/12/01 08:27:38;;;;;;;4.45;3.10;;;9.00;99.90;;;;;;5056755;28;20149;-71
2021/12/01 08:30:06;;;;;;;5.95;3.80;;;9.80;99.90;;;;;;4952665;28;20432;-73
2021/12/01 08:32:31;;;;;;;5.13;3.60;;;9.00;99.90;;;;;;5034804;28;20093;-72
2021/12/01 08:34:57;;;;;;;5.10;3.60;;;9.50;99.90;;;;;;4978252;28;20085;-72
2021/12/01 08:37:23;;;;;;;5.22;3.35;;;9.80;99.90;;;;;;4977951;28;20034;-73
2021/12/01 08:39:50;;;;;;;9.57;4.50;;;9.10;99.90;;;;;;4982661;28;20034;-72
2021/12/01 08:42:18;;;;;;;7.00;3.33;;;9.30;99.90;;;;;;5001956;28;20061;-71
2021/12/01 08:44:47;;;;;;;7.70;3.30;;;9.20;99.90;;;;;;4971826;28;20454;-73
2021/12/01 08:47:14;;;;;;;5.03;3.30;;;9.30;99.90;;;;;;4972211;28;20078;-71
2021/12/01 08:49:40;;;;;;;3.15;2.85;;;9.80;99.90;;;;;;4986151;28;20099;-71
2021/12/01 08:52:07;;;;;;;3.67;3.15;;;9.80;99.90;;;;;;5039258;28;20046;-71
2021/12/01 08:54:33;;;;;;;5.30;2.65;;;9.10;99.90;;;;;;4968460;28;20050;-72
2021/12/01 08:56:59;;;;;;;6.60;2.28;;;9.10;99.90;;;;;;5035820;28;20095;-73
2021/12/01 08:59:24;;;;;;;4.68;1.98;;;9.50;99.90;;;;;;4952021;28;20449;-71
2021/12/01 09:01:50;;;;;;;6.45;1.98;;;9.20;99.90;;;;;;4988207;28;20463;-72
2021/12/01 09:04:16;;;;;;;8.35;2.20;;;9.50;99.90;;;;;;4975775;28;20050;-73
2021/12/01 09:06:42;;;;;;;5.25;2.10;;;9.30;99.90;;;;;;4995599;28;20046;-72
2021/12/01 09:09:09;;;;;;;7.97;2.08;;;9.10;99.90;;;;;;5011790;28;20047;-72
2021/12/01 09:11:34;;;;;;;9.23;2.05;;;9.20;99.90;;;;;;5003336;28;20125;-72
2021/12/01 09:14:00;;;;;;;8.02;1.73;;;9.30;99.90;;;;;;4973202;28;20268;-71
2021/12/01 09:16:27;;;;;;;7.60;1.80;;;9.10;99.90;;;;;;4993931;28;20745;-71
2021/12/01 09:18:54;;;;;;;9.05;1.92;;;9.20;99.90;;;;;;4975162;28;20065;-72
2021/12/01 09:21:21;;;;;;;5.10;1.50;;;9.10;99.90;;;;;;4989823;28;20133;-71
2021/12/01 09:23:47;;;;;;;6.47;1.50;;;9.00;99.90;;;;;;4970605;28;20059;-71
2021/12/01 09:26:12;;;;;;;5.85;1.42;;;8.90;99.90;;;;;;4971194;28;20042;-72
2021/12/01 09:28:38;;;;;;;6.95;1.58;;;9.10;99.90;;;;;;5053266;28;20054;-74
2021/12/01 09:31:04;;;;;;;11.80;2.08;;;9.00;99.90;;;;;;5002094;28;20046;-73
2021/12/01 09:33:30;;;;;;;4.80;1.30;;;9.20;99.90;;;;;;4965644;28;20050;-73
2021/12/01 09:35:56;;;;;;;3.22;1.40;;;9.00;99.90;;;;;;4960954;28;20126;-72
2021/12/01 09:38:22;;;;;;;4.35;1.20;;;9.20;99.90;;;;;;4978983;28;20057;-72
2021/12/01 09:40:52;;;;;;;3.85;1.00;;;9.10;99.90;;;;;;4982465;28;20056;-73
2021/12/01 09:43:21;;;;;;;8.18;1.38;;;8.80;99.90;;;;;;4981817;28;20054;-73
2021/12/01 09:45:48;;;;;;;7.82;1.30;;;9.10;99.90;;;;;;4965178;28;20092;-72
2021/12/01 09:48:13;;;;;;;8.23;2.00;;;8.80;99.90;;;;;;4960052;28;20478;-72
2021/12/01 09:50:40;;;;;;;7.00;1.70;;;8.80;99.90;;;;;;4981840;28;20081;-73
2021/12/01 09:53:06;;;;;;;9.00;1.70;;;9.10;99.90;;;;;;4973584;28;20046;-72
2021/12/01 09:55:32;;;;;;;6.88;1.30;;;8.70;99.90;;;;;;4991706;28;20409;-71
2021/12/01 09:57:58;;;;;;;6.70;1.67;;;9.00;99.90;;;;;;4968506;28;20050;-71
2021/12/01 10:00:24;;;;;;;4.97;1.15;;;9.00;99.90;;;;;;4965840;28;20043;-72
2021/12/01 10:02:50;;;;;;;3.97;0.80;;;8.70;99.90;;;;;;4965501;28;20038;-71
2021/12/01 10:05:51;;;;;;;4.50;1.08;;;9.00;99.90;;;;;;4967949;28;20053;-72
2021/12/01 10:08:38;;;;;;;13.95;2.60;;;9.00;99.90;;;;;;4965988;28;20057;-73
2021/12/01 10:11:19;;;;;;;5.47;1.50;;;8.80;99.90;;;;;;4965770;28;20051;-72
2021/12/01 10:13:54;;;;;;;6.40;1.50;;;9.00;99.90;;;;;;4969632;28;20051;-72
2021/12/01 10:16:21;;;;;;;8.65;1.50;;;9.10;99.90;;;;;;4995488;28;20055;-72
2021/12/01 10:18:55;;;;;;;10.25;1.75;;;9.00;99.90;;;;;;4965586;28;20058;-72
2021/12/01 10:21:22;;;;;;;9.88;2.17;;;9.20;99.90;;;;;;4965790;28;20156;-72
2021/12/01 10:23:58;;;;;;;10.85;1.60;;;9.10;99.90;;;;;;4965321;28;20073;-72
2021/12/01 10:26:28;;;;;;;10.77;1.55;;;9.00;99.90;;;;;;4971582;28;20104;-72
2021/12/01 10:29:00;;;;;;;12.70;2.28;;;9.10;99.90;;;;;;4971585;28;20049;-72
2021/12/01 10:31:36;;;;;;;9.38;2.00;;;9.00;99.90;;;;;;4984461;28;20049;-72
2021/12/01 10:34:16;;;;;;;6.68;1.80;;;9.00;99.90;;;;;;4975308;28;20043;-71
2021/12/01 10:36:42;;;;;;;10.80;1.98;;;9.10;99.90;;;;;;4974287;28;20050;-72
2021/12/01 10:39:08;;;;;;;9.82;1.48;;;9.00;99.90;;;;;;4978016;28;20515;-72
2021/12/01 10:41:36;;;;;;;8.60;1.38;;;9.00;99.90;;;;;;4985035;28;20049;-72
2021/12/01 10:44:28;;;;;;;10.30;1.92;;;8.70;99.90;;;;;;4984814;28;20052;-71
2021/12/01 10:46:55;;;;;;;9.30;1.85;;;8.90;99.90;;;;;;5012829;28;20093;-72
2021/12/01 10:49:40;;;;;;;9.10;1.80;;;8.60;99.90;;;;;;4977444;28;20132;-72
2021/12/01 10:52:26;;;;;;;9.02;2.05;;;9.10;99.90;;;;;;5010205;28;20038;-72
2021/12/01 10:55:23;;;;;;;13.93;1.92;;;8.70;99.90;;;;;;4996672;28;20135;-74
2021/12/01 10:57:55;;;;;;;7.72;1.40;;;8.70;99.90;;;;;;4967725;28;20054;-72
2021/12/01 11:00:23;;;;;;;7.65;1.73;;;8.70;99.90;;;;;;4980241;28;21043;-70
2021/12/01 11:02:53;;;;;;;11.77;1.60;;;8.70;99.90;;;;;;4957083;28;20050;-72
2021/12/01 11:05:34;;;;;;;11.88;2.00;;;9.00;99.90;;;;;;5006956;28;20084;-72
2021/12/01 11:08:18;;;;;;;8.23;2.10;;;9.00;99.90;;;;;;4964911;28;20125;-72
2021/12/01 11:10:51;;;;;;;6.63;1.40;;;9.00;99.90;;;;;;4965297;28;20434;-72
2021/12/01 11:13:18;;;;;;;10.55;1.45;;;8.90;99.90;;;;;;4980935;28;20710;-72
2021/12/01 11:16:00;;;;;;;7.35;1.20;;;9.20;99.90;;;;;;4967371;28;20074;-72
2021/12/01 11:18:32;;;;;;;4.70;1.42;;;9.10;99.90;;;;;;4982261;28;20175;-71
2021/12/01 11:21:01;;;;;;;6.50;1.95;;;9.10;99.90;;;;;;4965810;28;20042;-73
2021/12/01 11:23:41;;;;;;;10.95;2.70;;;8.90;99.90;;;;;;4964903;28;20066;-72
2021/12/01 11:26:14;;;;;;;9.32;1.50;;;9.00;99.90;;;;;;4987775;28;20590;-73
2021/12/01 11:28:53;;;;;;;5.45;1.25;;;8.90;99.90;;;;;;4966490;28;20564;-71
2021/12/01 11:31:22;;;;;;;9.10;1.88;;;8.90;99.90;;;;;;4965238;28;20141;-73
2021/12/01 11:33:52;;;;;;;9.02;1.67;;;8.80;99.90;;;;;;4979144;28;20707;-72
2021/12/01 11:36:21;;;;;;;8.90;2.63;;;8.90;99.90;;;;;;4984858;28;20664;-70
2021/12/01 11:38:52;;;;;;;14.25;2.17;;;8.80;99.90;;;;;;4966512;28;20061;-71
2021/12/01 11:41:18;;;;;;;10.35;2.33;;;8.80;99.90;;;;;;4964298;28;20050;-72
2021/12/01 11:43:47;;;;;;;21.95;3.58;;;8.80;99.90;;;;;;4948427;28;20049;-71
2021/12/01 11:46:13;;;;;;;14.90;2.40;;;8.90;99.90;;;;;;4978747;28;20153;-73
2021/12/01 11:48:51;;;;;;;9.35;2.85;;;8.80;99.90;;;;;;4963374;28;20146;-71
2021/12/01 11:51:23;;;;;;;11.00;2.75;;;8.70;99.90;;;;;;4977697;28;20050;-72
2021/12/01 11:54:04;;;;;;;12.85;2.75;;;8.60;99.90;;;;;;4960367;28;20042;-73
2021/12/01 11:56:33;;;;;;;16.85;3.08;;;8.50;99.90;;;;;;4965475;28;20513;-71
2021/12/01 11:59:18;;;;;;;13.25;2.40;;;8.50;99.90;;;;;;4980802;28;20054;-73
2021/12/01 12:01:48;;;;;;;19.90;3.67;;;8.30;99.90;;;;;;4976278;28;20156;-71
2021/12/01 12:04:13;;;;;;;15.02;2.53;;;8.30;99.90;;;;;;4964181;28;20050;-70
2021/12/01 12:06:52;;;;;;;14.00;3.42;;;8.10;99.90;;;;;;4960334;28;20065;-72
2021/12/01 12:09:20;;;;;;;15.88;3.50;;;8.10;99.90;;;;;;4970480;28;20047;-73
2021/12/01 12:11:52;;;;;;;14.57;2.85;;;8.10;99.90;;;;;;4986076;28;20034;-73
2021/12/01 12:14:44;;;;;;;13.50;2.17;;;8.10;99.90;;;;;;4981257;28;20042;-72
2021/12/01 12:17:15;;;;;;;13.70;2.75;;;8.20;99.90;;;;;;4984703;28;20042;-73
2021/12/01 12:19:45;;;;;;;12.55;2.45;;;8.20;99.90;;;;;;4994236;28;20053;-71
2021/12/01 12:22:12;;;;;;;14.50;2.80;;;8.20;99.90;;;;;;4986749;28;20078;-71
2021/12/01 12:24:47;;;;;;;15.50;2.83;;;8.20;99.90;;;;;;4949803;28;20062;-71
2021/12/01 12:27:33;;;;;;;13.40;2.60;;;8.30;99.90;;;;;;4956281;28;20043;-70
2021/12/01 12:30:00;;;;;;;10.52;2.20;;;8.20;99.90;;;;;;4979438;28;20043;-71
2021/12/01 12:32:29;;;;;;;14.05;2.13;;;8.20;99.90;;;;;;4955595;28;20088;-72
2021/12/01 12:35:02;;;;;;;19.05;3.70;;;8.10;99.90;;;;;;4961075;28;20125;-72
2021/12/01 12:37:31;;;;;;;17.08;2.70;;;8.10;99.90;;;;;;4977532;28;20664;-72
2021/12/01 12:39:59;;;;;;;10.70;2.03;;;8.10;99.90;;;;;;4957363;28;20818;-71
2021/12/01 12:42:26;;;;;;;8.88;1.90;;;8.20;99.90;;;;;;4954780;28;20748;-71
2021/12/01 12:44:57;;;;;;;10.02;2.10;;;8.20;99.90;;;;;;4956921;28;20509;-71
2021/12/01 12:47:38;;;;;;;8.07;1.92;;;8.20;99.90;;;;;;4981036;28;20132;-72
2021/12/01 12:50:21;;;;;;;9.38;1.67;;;8.00;99.90;;;;;;4953612;28;20600;-72
2021/12/01 12:53:06;;;;;;;5.25;1.50;;;7.90;99.90;;;;;;4944528;28;20039;-70
2021/12/01 12:55:39;;;;;;;13.98;2.63;;;7.90;99.90;;;;;;4971935;28;20042;-71
2021/12/01 12:58:08;;;;;;;8.23;2.03;;;7.40;99.90;;;;;;4973386;28;20062;-71
2021/12/01 13:00:38;;;;;;;7.95;1.98;;;7.90;99.90;;;;;;4945246;28;20050;-72
2021/12/01 13:03:24;;;;;;;12.43;2.08;;;7.90;99.90;;;;;;4963461;28;20751;-73